Time;durP1;ratioP1;P1;durP2;ratioP2;P2;SDS_P1;SDS_P2;PMS_P1;PMS_P2;Temp;Humidity;BMP_temperature;BMP_pressure;BME280_temperature;BME280_humidity;BME280_pressure;Samples;Min_cycle;Max_cycle;Signal;HPM_P1;HPM_P2
2022/07/26 00:02:28;;;;;;;4.17;2.45;;;;;;;26.25;40.32;99537.64;1949562;101;25845;-79
2022/07/26 00:05:57;;;;;;;5.97;2.50;;;;;;;26.21;40.40;99534.27;1949567;100;25748;-80
2022/07/26 00:09:34;;;;;;;7.92;2.30;;;;;;;26.14;40.48;99524.88;1948315;100;25999;-78
2022/07/26 00:13:04;;;;;;;3.45;2.77;;;;;;;26.11;40.63;99527.70;2023204;97;26407;-78
2022/07/26 00:17:01;;;;;;;5.25;2.90;;;;;;;26.05;40.75;99507.52;2062789;94;25905;-79
2022/07/26 00:20:30;;;;;;;6.83;3.42;;;;;;;26.05;40.84;99498.65;2078472;94;25898;-75
2022/07/26 00:27:35;;;;;;;3.45;2.60;;;;;;;25.98;40.98;99495.92;2033587;95;25977;-79
2022/07/26 00:31:04;;;;;;;3.42;2.52;;;;;;;25.95;41.00;99497.42;2096185;92;25784;-79
2022/07/26 00:34:32;;;;;;;5.33;2.40;;;;;;;25.92;41.14;99501.14;2105818;92;25738;-75
2022/07/26 00:38:09;;;;;;;3.80;2.67;;;;;;;25.89;41.25;99486.14;2089261;91;26559;-78
2022/07/26 00:41:30;;;;;;;2.75;2.50;;;;;;;25.94;41.27;99483.69;2089718;93;25796;-75
2022/07/26 00:45:08;;;;;;;3.37;2.42;;;;;;;25.90;41.30;99491.86;2070909;93;25844;-78
2022/07/26 00:48:46;;;;;;;4.80;3.20;;;;;;;25.86;41.36;99492.13;2164970;88;25795;-76
2022/07/26 00:52:16;;;;;;;2.72;2.37;;;;;;;25.83;41.34;99487.80;2208330;88;25805;-75
2022/07/26 00:55:44;;;;;;;3.72;2.87;;;;;;;25.83;41.40;99479.79;2189203;88;26425;-76
2022/07/26 00:59:16;;;;;;;4.45;2.60;;;;;;;25.81;41.51;99478.14;2259326;85;25841;-76
2022/07/26 01:02:44;;;;;;;4.55;2.75;;;;;;;25.74;41.56;99474.90;2265833;85;25759;-75
2022/07/26 01:06:05;;;;;;;5.42;2.25;;;;;;;25.67;41.66;99469.50;2264270;85;25728;-75
2022/07/26 01:09:43;;;;;;;2.87;2.35;;;;;;;25.63;41.76;99475.48;2348260;81;25740;-76
2022/07/26 01:13:23;;;;;;;3.08;2.50;;;;;;;25.60;41.84;99472.11;2388517;81;25670;-77
2022/07/26 01:16:56;;;;;;;2.50;2.20;;;;;;;25.57;41.86;99473.13;2368538;81;25698;-75
2022/07/26 01:20:18;;;;;;;8.40;2.58;;;;;;;25.54;42.00;99467.09;2389190;81;25699;-77
2022/07/26 01:23:39;;;;;;;4.42;2.10;;;;;;;25.51;42.09;99458.77;2389759;81;25624;-78
2022/07/26 01:27:19;;;;;;;3.08;2.20;;;;;;;25.52;42.02;99452.50;2389712;81;25663;-77
2022/07/26 01:31:18;;;;;;;3.08;2.15;;;;;;;25.62;42.04;99453.74;2308353;84;25735;-76
2022/07/26 01:35:25;;;;;;;;;;;;;;;;;;;;;
2022/07/26 01:39:03;;;;;;;6.47;2.37;;;;;;;25.76;41.74;99464.16;2282068;85;25728;-76
2022/07/26 01:42:20;;;;;;;3.02;1.95;;;;;;;25.72;41.75;99465.23;2280847;85;25824;-78
2022/07/26 01:45:43;;;;;;;4.05;2.50;;;;;;;25.65;41.83;99464.73;2281650;86;25763;-78
2022/07/26 01:49:07;;;;;;;2.90;2.00;;;;;;;25.59;41.86;99462.39;2282724;86;25680;-76
2022/07/26 01:52:27;;;;;;;2.55;2.35;;;;;;;25.56;42.01;99459.87;2282666;85;25723;-78
2022/07/26 01:55:48;;;;;;;3.17;2.17;;;;;;;25.57;41.98;99456.25;2282837;86;25770;-77
2022/07/26 01:59:09;;;;;;;3.47;2.37;;;;;;;25.39;42.11;99445.61;2282364;85;25728;-79
2022/07/26 02:02:43;;;;;;;2.75;2.12;;;;;;;25.49;42.19;99464.67;2282312;85;25735;-79
2022/07/26 02:06:05;;;;;;;3.08;2.45;;;;;;;25.56;42.20;99465.21;2348431;82;25655;-79
2022/07/26 02:09:41;;;;;;;3.05;2.50;;;;;;;25.48;42.18;99458.95;2401272;81;25623;-78
2022/07/26 02:13:05;;;;;;;2.83;2.37;;;;;;;25.38;42.34;99444.34;2367502;82;30706;-80
2022/07/26 02:16:26;;;;;;;4.65;1.87;;;;;;;25.31;42.51;99439.83;2344163;82;25680;-78
2022/07/26 02:19:47;;;;;;;2.55;2.35;;;;;;;25.23;42.59;99443.81;2368238;83;25656;-76
2022/07/26 02:23:08;;;;;;;5.37;2.77;;;;;;;25.16;42.77;99437.46;2368446;82;25866;-78
2022/07/26 02:26:28;;;;;;;2.37;2.15;;;;;;;25.13;42.84;99435.42;2368290;83;25720;-78
2022/07/26 02:29:49;;;;;;;1.92;1.82;;;;;;;25.06;42.97;99426.84;2368393;82;25614;-79
2022/07/26 02:33:10;;;;;;;2.95;2.22;;;;;;;25.03;43.01;99428.33;2368005;82;25814;-77
2022/07/26 02:36:44;;;;;;;5.40;2.77;;;;;;;25.06;43.04;99424.66;2359158;82;25774;-78
2022/07/26 02:40:16;;;;;;;4.83;2.05;;;;;;;25.01;43.12;99428.00;2349955;83;25911;-79
2022/07/26 02:47:16;;;;;;;3.65;2.22;;;;;;;24.92;43.23;99422.69;2188069;88;25865;-77
2022/07/26 02:50:44;;;;;;;2.80;2.05;;;;;;;24.91;43.36;99419.16;2105773;92;25855;-78
2022/07/26 02:54:14;;;;;;;3.70;2.12;;;;;;;24.86;43.33;99406.52;2103903;92;25672;-77
2022/07/26 02:57:45;;;;;;;2.52;2.33;;;;;;;24.86;43.42;99403.86;2043234;95;25902;-77
2022/07/26 03:01:07;;;;;;;4.92;2.45;;;;;;;24.79;43.48;99398.45;2043617;95;25839;-76
2022/07/26 03:04:30;;;;;;;5.30;2.37;;;;;;;24.73;43.52;99384.09;2044027;95;25988;-79
2022/07/26 03:07:50;;;;;;;2.25;2.15;;;;;;;24.73;43.64;99388.95;2043980;95;25811;-79
2022/07/26 03:11:11;;;;;;;2.42;2.12;;;;;;;24.71;43.63;99388.19;2043899;95;26151;-79
2022/07/26 03:14:47;;;;;;;2.42;2.17;;;;;;;24.68;43.72;99391.00;2069792;93;25790;-76
2022/07/26 03:18:11;;;;;;;2.22;2.02;;;;;;;24.68;43.79;99388.81;2106663;91;25709;-76
2022/07/26 03:21:37;;;;;;;5.78;2.67;;;;;;;24.63;43.88;99393.02;2132091;91;25690;-76
2022/07/26 03:29:05;;;;;;;5.08;2.37;;;;;;;24.64;43.90;99391.24;2027297;95;25803;-79
2022/07/26 03:32:31;;;;;;;6.97;2.45;;;;;;;24.64;43.97;99393.43;2001907;98;25878;-76
2022/07/26 03:36:19;;;;;;;2.27;2.08;;;;;;;24.75;43.87;99402.22;1960734;98;26304;-77
2022/07/26 03:40:03;;;;;;;4.33;2.42;;;;;;;24.78;43.94;99404.73;1988587;98;25738;-76
2022/07/26 03:43:23;;;;;;;4.15;2.35;;;;;;;24.80;43.94;99404.64;1917326;100;25825;-76
2022/07/26 03:46:56;;;;;;;2.67;2.20;;;;;;;24.80;43.94;99397.97;1898914;102;25925;-75
2022/07/26 03:50:21;;;;;;;2.45;1.90;;;;;;;24.80;43.97;99386.84;1874125;102;25872;-75
2022/07/26 03:54:05;;;;;;;3.65;2.20;;;;;;;24.80;44.01;99374.84;1872747;103;25920;-76
2022/07/26 03:57:47;;;;;;;4.65;2.33;;;;;;;24.80;44.05;99356.66;1859426;104;25804;-78
2022/07/26 04:05:21;;;;;;;3.30;2.42;;;;;;;24.76;44.17;99369.75;1814728;106;25925;-79
2022/07/26 04:08:57;;;;;;;9.55;2.30;;;;;;;24.85;44.15;99362.16;1850211;105;25864;-78
2022/07/26 04:12:36;;;;;;;4.40;2.55;;;;;;;24.89;44.12;99357.52;1850030;105;25813;-79
2022/07/26 04:16:01;;;;;;;3.45;2.33;;;;;;;24.90;44.08;99352.58;1820425;107;25800;-79
2022/07/26 04:19:33;;;;;;;3.08;2.70;;;;;;;24.93;44.04;99355.09;1830463;106;25811;-78
2022/07/26 04:23:16;;;;;;;3.95;3.08;;;;;;;24.96;44.05;99341.59;1771398;110;26007;-76
2022/07/26 04:27:12;;;;;;;2.60;2.20;;;;;;;24.99;44.03;99350.77;1829874;106;26699;-78
2022/07/26 04:30:41;;;;;;;5.78;2.62;;;;;;;25.05;44.07;99347.80;1809751;106;25813;-79
2022/07/26 04:34:16;;;;;;;3.47;2.35;;;;;;;25.13;43.96;99346.08;1819343;102;25829;-78
2022/07/26 04:37:43;;;;;;;6.03;2.58;;;;;;;25.22;43.96;99349.60;1884907;102;25869;-78
2022/07/26 04:41:07;;;;;;;3.00;1.95;;;;;;;25.34;43.86;99342.73;1895711;100;26431;-77
2022/07/26 04:44:34;;;;;;;5.03;2.55;;;;;;;25.43;43.76;99350.25;1847302;105;25819;-78
2022/07/26 04:48:02;;;;;;;3.10;2.25;;;;;;;25.47;43.60;99354.47;1798402;108;26597;-77
2022/07/26 04:51:32;;;;;;;3.40;2.35;;;;;;;25.49;43.65;99353.07;1777366;109;25878;-75
2022/07/26 04:54:55;;;;;;;3.27;2.40;;;;;;;25.52;43.51;99339.56;1777528;109;25971;-78
2022/07/26 04:58:36;;;;;;;5.45;2.50;;;;;;;25.55;43.46;99337.59;1727777;113;25855;-79
2022/07/26 05:02:08;;;;;;;3.33;2.33;;;;;;;25.58;43.49;99348.55;1749882;111;25819;-77
2022/07/26 05:05:36;;;;;;;5.22;2.37;;;;;;;25.66;43.46;99353.01;1750443;111;25915;-79
2022/07/26 05:09:03;;;;;;;4.77;2.30;;;;;;;25.77;43.35;99346.59;1750915;111;26036;-79
2022/07/26 05:16:03;;;;;;;2.77;2.55;;;;;;;25.99;43.17;99352.13;1731399;112;25801;-78
2022/07/26 05:19:37;;;;;;;2.67;2.45;;;;;;;26.10;43.06;99331.00;1634234;119;25994;-77
2022/07/26 05:23:01;;;;;;;3.17;2.33;;;;;;;26.20;42.93;99328.66;1667363;116;26537;-76
2022/07/26 05:26:24;;;;;;;2.45;2.25;;;;;;;26.32;42.80;99330.13;1733399;110;25948;-77
2022/07/26 05:29:47;;;;;;;4.17;2.22;;;;;;;26.45;42.63;99326.75;1827886;103;26002;-74
2022/07/26 05:33:07;;;;;;;4.25;2.62;;;;;;;26.56;42.54;99324.33;1941145;99;25919;-77
2022/07/26 05:36:29;;;;;;;5.85;2.33;;;;;;;26.65;42.49;99322.45;1997100;98;25758;-78
2022/07/26 05:39:50;;;;;;;3.33;2.45;;;;;;;26.78;42.36;99317.24;2005829;95;25840;-79
2022/07/26 05:43:10;;;;;;;2.35;2.10;;;;;;;26.90;42.24;99311.61;2073431;92;25749;-77
2022/07/26 05:46:38;;;;;;;5.75;2.02;;;;;;;27.01;42.18;99311.84;2150445;90;25721;-76
2022/07/26 05:50:02;;;;;;;4.42;2.15;;;;;;;27.11;41.99;99310.32;2150681;92;25702;-79
2022/07/26 05:54:03;;;;;;;4.17;2.40;;;;;;;27.18;41.78;99313.51;2187115;89;25882;-78
2022/07/26 05:57:46;;;;;;;3.30;2.47;;;;;;;27.25;41.66;99323.73;2221971;85;25692;-75
2022/07/26 06:01:12;;;;;;;3.47;2.87;;;;;;;27.35;41.53;99320.48;2233560;87;25855;-77
2022/07/26 06:04:49;;;;;;;5.35;2.35;;;;;;;27.39;41.30;99322.86;2213578;88;25825;-77
2022/07/26 06:08:22;;;;;;;4.42;2.05;;;;;;;27.45;41.30;99323.83;2134261;90;25713;-78
2022/07/26 06:15:32;;;;;;;;;;;;;;;;;;;;;
2022/07/26 06:19:25;;;;;;;2.58;2.35;;;;;;;27.75;40.85;99315.66;2027083;95;25931;-76
2022/07/26 06:22:51;;;;;;;5.55;2.83;;;;;;;27.91;40.63;99314.69;2035729;91;25656;-79
2022/07/26 06:26:36;;;;;;;4.95;2.20;;;;;;;28.03;40.45;99313.89;2034657;95;25806;-78
2022/07/26 06:30:05;;;;;;;2.83;2.30;;;;;;;28.18;40.47;99310.22;2000779;98;25841;-77
2022/07/26 06:33:43;;;;;;;2.60;2.12;;;;;;;28.36;40.23;99309.95;1922766;101;25738;-79
2022/07/26 06:40:39;;;;;;;8.00;2.08;;;;;;;28.88;39.95;99304.59;1829487;106;25920;-78
2022/07/26 06:44:05;;;;;;;2.58;2.08;;;;;;;29.11;39.63;99303.03;1829572;106;26055;-78
2022/07/26 06:47:34;;;;;;;2.12;1.98;;;;;;;29.36;39.35;99300.82;1837432;104;25842;-79
2022/07/26 06:54:55;;;;;;;4.47;2.33;;;;;;;30.05;38.58;99289.58;1811665;107;25921;-78
2022/07/26 06:58:25;;;;;;;3.35;2.37;;;;;;;30.52;38.13;99296.78;1813224;108;25815;-80
2022/07/26 07:02:02;;;;;;;1.75;1.57;;;;;;;31.06;37.69;99300.73;1806943;108;25887;-80
2022/07/26 07:05:36;;;;;;;3.20;2.15;;;;;;;31.40;37.20;99305.67;1839482;106;25890;-79
2022/07/26 07:09:30;;;;;;;2.17;1.82;;;;;;;31.62;36.71;99328.18;1808938;109;25832;-80
2022/07/26 07:13:02;;;;;;;5.47;1.95;;;;;;;31.76;36.28;99337.37;1890939;102;25930;-80
2022/07/26 07:16:55;;;;;;;3.85;2.05;;;;;;;31.86;35.77;99324.87;1924816;101;25795;-80
2022/07/26 07:20:18;;;;;;;11.35;2.20;;;;;;;31.92;35.57;99335.16;1924680;101;25917;-79
2022/07/26 07:23:39;;;;;;;4.33;2.00;;;;;;;32.12;35.31;99348.84;1924816;101;25807;-81
2022/07/26 07:27:00;;;;;;;4.92;1.77;;;;;;;32.60;34.93;99343.06;1899897;102;25755;-79
2022/07/26 07:30:20;;;;;;;4.53;1.77;;;;;;;33.28;34.44;99335.47;1890673;103;25878;-79
2022/07/26 07:33:41;;;;;;;3.40;1.30;;;;;;;33.81;33.89;99336.12;1891473;103;25893;-78
2022/07/26 07:37:03;;;;;;;2.22;1.75;;;;;;;34.19;33.51;99333.66;1892525;102;25888;-78
2022/07/26 07:40:24;;;;;;;4.87;1.70;;;;;;;34.39;33.09;99323.25;1928648;100;25847;-76
2022/07/26 07:43:45;;;;;;;4.83;1.62;;;;;;;34.64;32.85;99318.28;1950094;101;25847;-79
2022/07/26 07:47:07;;;;;;;6.33;1.90;;;;;;;34.78;32.62;99325.45;1963926;98;26366;-78
2022/07/26 07:50:28;;;;;;;4.78;1.50;;;;;;;34.83;32.43;99313.31;2111692;89;25810;-79
2022/07/26 07:57:48;;;;;;;2.90;1.77;;;;;;;34.85;32.11;99322.16;2166281;90;25723;-78
2022/07/26 08:01:09;;;;;;;1.40;1.30;;;;;;;34.66;32.18;99323.03;2208841;85;25819;-80
2022/07/26 08:04:30;;;;;;;3.98;1.85;;;;;;;34.41;32.35;99328.50;2349401;81;25603;-80
2022/07/26 08:07:51;;;;;;;2.98;1.67;;;;;;;34.21;32.56;99337.09;2352756;84;25679;-81
2022/07/26 08:11:11;;;;;;;3.10;1.50;;;;;;;33.99;32.75;99334.12;2352794;84;25656;-79
2022/07/26 08:14:49;;;;;;;3.58;1.72;;;;;;;33.77;32.90;99338.75;2352505;84;25957;-77
2022/07/26 08:18:33;;;;;;;5.25;1.75;;;;;;;33.57;33.13;99332.91;2351815;84;25752;-79
2022/07/26 08:22:07;;;;;;;2.12;1.52;;;;;;;33.32;33.32;99325.60;2332277;84;25721;-78
2022/07/26 08:25:40;;;;;;;4.25;1.50;;;;;;;33.14;33.49;99320.44;2348869;84;25674;-77
2022/07/26 08:29:11;;;;;;;5.47;1.90;;;;;;;33.03;33.70;99322.73;2369128;82;25782;-80
2022/07/26 08:33:00;;;;;;;4.90;1.85;;;;;;;32.99;33.91;99317.74;2368862;82;25786;-76
2022/07/26 08:36:23;;;;;;;1.70;1.60;;;;;;;33.04;34.03;99308.73;2368731;83;25685;-76
2022/07/26 08:39:56;;;;;;;5.75;1.85;;;;;;;33.11;34.12;99322.09;2358855;82;25675;-78
2022/07/26 08:43:24;;;;;;;2.25;1.50;;;;;;;33.29;34.04;99320.47;2359395;82;25596;-78
2022/07/26 08:50:32;;;;;;;2.35;1.70;;;;;;;34.04;33.69;99328.66;2204030;88;25740;-79
2022/07/26 08:54:05;;;;;;;3.20;1.50;;;;;;;34.52;33.27;99335.15;2203820;88;25720;-77
2022/07/26 08:57:39;;;;;;;1.98;1.72;;;;;;;34.88;33.08;99344.39;2203578;88;25733;-80
2022/07/26 09:01:31;;;;;;;2.42;1.57;;;;;;;35.12;32.76;99343.09;2169271;85;25893;-80
2022/07/26 09:12:58;;;;;;;2.05;1.60;;;;;;;34.99;32.62;99356.91;2035466;93;25791;-79
2022/07/26 09:16:34;;;;;;;3.15;1.67;;;;;;;35.26;32.57;99354.81;2035418;97;26882;-79
2022/07/26 09:20:30;;;;;;;4.42;1.85;;;;;;;35.71;32.36;99367.18;2026345;94;25737;-79
2022/07/26 09:24:09;;;;;;;4.42;2.10;;;;;;;36.18;32.07;99377.06;1865901;104;26032;-79
2022/07/26 09:27:52;;;;;;;2.00;1.77;;;;;;;36.64;31.73;99381.48;1863882;103;25962;-80
2022/07/26 09:31:21;;;;;;;3.67;1.75;;;;;;;37.11;31.40;99380.38;1876704;103;25840;-80
2022/07/26 09:34:54;;;;;;;3.52;2.02;;;;;;;37.54;30.96;99387.66;1878438;103;25981;-81
2022/07/26 09:38:59;;;;;;;4.62;1.70;;;;;;;37.76;30.68;99394.39;1871791;103;25886;-79
2022/07/26 09:49:55;;;;;;;3.83;1.85;;;;;;;37.87;30.07;99401.44;1778189;109;25903;-80
2022/07/26 09:53:30;;;;;;;4.58;1.70;;;;;;;38.18;29.95;99403.62;1771944;110;25806;-80
2022/07/26 09:57:33;;;;;;;;;;;;;;;;;;;;;
2022/07/26 10:01:05;;;;;;;7.08;1.60;;;;;;;38.43;29.62;99404.05;1841972;103;25812;-82
2022/07/26 10:04:40;;;;;;;4.03;1.85;;;;;;;38.44;29.65;99404.89;1797271;108;26343;-80
2022/07/26 10:08:11;;;;;;;1.67;1.57;;;;;;;38.58;29.60;99412.44;1797849;108;25827;-79
2022/07/26 10:12:01;;;;;;;3.45;1.82;;;;;;;38.73;29.59;99413.97;1825271;105;25832;-80
2022/07/26 10:15:44;;;;;;;1.77;1.67;;;;;;;38.91;29.57;99412.47;1847019;106;25910;-81
2022/07/26 10:19:06;;;;;;;1.75;1.62;;;;;;;39.12;29.40;99412.83;1876779;99;25911;-78
2022/07/26 10:22:34;;;;;;;4.95;1.80;;;;;;;39.33;29.17;99412.84;1969096;97;25843;-79
2022/07/26 10:26:12;;;;;;;1.52;1.40;;;;;;;39.40;29.12;99423.39;1987035;98;25685;-80
2022/07/26 10:29:36;;;;;;;2.17;1.60;;;;;;;39.31;29.08;99427.98;1986876;97;25786;-77
2022/07/26 10:33:24;;;;;;;2.42;1.65;;;;;;;39.26;29.13;99431.76;1983644;98;25813;-77
2022/07/26 10:41:06;;;;;;;2.30;1.80;;;;;;;39.23;29.14;99440.25;1923176;100;25781;-77
2022/07/26 10:44:40;;;;;;;4.22;2.20;;;;;;;39.17;29.15;99443.66;1976126;98;25966;-78
2022/07/26 10:48:23;;;;;;;2.47;1.80;;;;;;;39.16;29.15;99444.17;1974759;99;25920;-79
2022/07/26 10:52:10;;;;;;;3.83;2.10;;;;;;;39.16;29.13;99440.59;1973167;99;25759;-78
2022/07/26 10:56:16;;;;;;;5.50;1.52;;;;;;;39.26;29.04;99426.31;2005991;97;26005;-77
2022/07/26 11:08:29;;;;;;;;;;;;;;;;;;;;;
2022/07/26 11:12:05;;;;;;;3.00;1.75;;;;;;;39.17;28.92;99462.73;1896165;102;25923;-81
2022/07/26 11:15:44;;;;;;;4.45;1.77;;;;;;;39.16;28.85;99474.16;1867916;103;26061;-79
2022/07/26 11:31:53;;;;;;;5.50;2.20;;;;;;;38.70;28.79;99489.22;1846428;105;25925;-79
2022/07/26 11:35:39;;;;;;;;;;;;;;;;;;;;;
2022/07/26 11:39:17;;;;;;;3.33;2.75;;;;;;;37.72;29.24;99499.09;1815820;107;25905;-79
2022/07/26 11:42:48;;;;;;;7.30;2.08;;;;;;;37.46;29.49;99513.17;1862284;102;25804;-77
2022/07/26 11:46:31;;;;;;;2.58;1.98;;;;;;;37.17;29.71;99512.06;1835169;106;25848;-77
2022/07/26 11:50:18;;;;;;;3.58;1.90;;;;;;;36.91;29.91;99514.15;1836268;106;25890;-79
2022/07/26 11:53:43;;;;;;;6.30;2.00;;;;;;;36.62;30.09;99515.73;1837652;106;25812;-77
2022/07/26 11:57:09;;;;;;;7.20;2.25;;;;;;;36.30;30.29;99509.35;1837537;106;25808;-77
2022/07/26 12:04:27;;;;;;;2.25;1.75;;;;;;;35.68;30.79;99510.33;1921671;100;25823;-77
2022/07/26 12:08:07;;;;;;;2.83;1.80;;;;;;;35.34;31.14;99505.35;1986106;96;25892;-78
2022/07/26 12:11:42;;;;;;;4.40;2.70;;;;;;;34.96;31.45;99499.39;1984080;96;25881;-77
2022/07/26 12:15:19;;;;;;;3.40;3.10;;;;;;;34.61;31.84;99511.59;2030862;95;25776;-79
2022/07/26 12:19:06;;;;;;;2.42;2.22;;;;;;;34.33;32.13;99508.30;2077888;92;26063;-80
2022/07/26 12:23:03;;;;;;;4.80;2.55;;;;;;;34.03;32.48;99514.08;2078961;92;25808;-81
2022/07/26 12:26:34;;;;;;;7.15;2.80;;;;;;;33.80;32.73;99520.95;2079115;93;25815;-78
2022/07/26 12:30:08;;;;;;;5.03;2.52;;;;;;;33.60;33.07;99521.33;2070053;93;25936;-81
2022/07/26 12:33:53;;;;;;;7.45;2.70;;;;;;;33.46;33.32;99508.62;2077448;93;25762;-80
2022/07/26 12:37:28;;;;;;;2.75;2.40;;;;;;;33.32;33.56;99520.61;2079419;93;25766;-80
2022/07/26 12:40:53;;;;;;;9.03;2.87;;;;;;;33.18;33.83;99513.67;2079225;93;25787;-76
2022/07/26 12:44:32;;;;;;;3.72;2.50;;;;;;;32.98;34.09;99514.48;2091099;92;25763;-77
2022/07/26 12:48:27;;;;;;;4.40;2.98;;;;;;;32.75;34.42;99515.01;2103661;92;25789;-80
2022/07/26 12:52:08;;;;;;;5.12;2.55;;;;;;;32.47;35.00;99531.23;2142675;91;25724;-79
2022/07/26 12:55:41;;;;;;;2.90;2.67;;;;;;;32.10;35.50;99540.92;2142638;91;25696;-79
2022/07/26 12:59:11;;;;;;;6.30;2.92;;;;;;;31.88;35.84;99535.85;2133370;88;26054;-76
2022/07/26 13:02:50;;;;;;;7.72;2.95;;;;;;;31.70;36.46;99521.95;2246790;87;26471;-77
2022/07/26 13:06:29;;;;;;;8.05;3.22;;;;;;;31.64;36.77;99520.23;2248900;86;25753;-81
2022/07/26 13:10:05;;;;;;;4.60;3.27;;;;;;;31.54;37.28;99532.70;2264230;86;25332;-80
2022/07/26 13:13:41;;;;;;;3.47;3.05;;;;;;;31.43;37.57;99548.34;2285425;86;25708;-80
2022/07/26 13:17:05;;;;;;;4.33;2.85;;;;;;;31.29;37.95;99538.09;2286274;86;25726;-77
2022/07/26 13:20:48;;;;;;;3.33;3.02;;;;;;;31.19;38.25;99532.18;2285828;85;25882;-76
2022/07/26 13:24:16;;;;;;;3.20;2.80;;;;;;;31.08;38.49;99528.07;2235810;86;26513;-79
2022/07/26 13:27:53;;;;;;;7.58;3.08;;;;;;;30.97;38.86;99529.73;2236335;88;25730;-79
2022/07/26 13:31:20;;;;;;;;;;;;;;;30.85;39.20;99532.47;2238181;87;25813;-80
2022/07/26 13:34:43;;;;;;;5.12;3.62;;;;;;;30.71;39.74;99541.53;2236186;88;25638;-78
2022/07/26 13:38:19;;;;;;;6.67;2.92;;;;;;;30.58;39.85;99552.35;2232399;86;25785;-76
2022/07/26 13:41:46;;;;;;;3.72;3.42;;;;;;;30.50;40.21;99572.20;2228608;86;25825;-76
2022/07/26 13:45:12;;;;;;;4.60;3.55;;;;;;;30.46;40.41;99580.13;2223958;87;25983;-80
2022/07/26 13:48:34;;;;;;;3.02;2.80;;;;;;;30.41;40.68;99580.92;2251313;87;25741;-79
2022/07/26 13:51:58;;;;;;;5.13;3.23;;;;;;;30.30;41.23;99574.97;2273326;85;25750;-78
2022/07/26 13:55:22;;;;;;;8.88;3.42;;;;;;;30.30;41.23;99574.97;2250471;86;25784;-79
2022/07/26 13:58:42;;;;;;;6.67;2.90;;;;;;;30.27;41.26;99572.50;2273197;85;25702;-77
2022/07/26 14:02:19;;;;;;;4.20;2.90;;;;;;;30.19;41.51;99577.08;2272442;86;26425;-76
2022/07/26 14:05:52;;;;;;;5.12;3.27;;;;;;;30.11;41.83;99591.53;2272410;86;25668;-77
2022/07/26 14:09:21;;;;;;;6.47;3.17;;;;;;;30.05;42.12;99583.89;2241770;86;25774;-76
2022/07/26 14:12:55;;;;;;;6.55;3.37;;;;;;;30.02;42.16;99584.95;2272670;86;25922;-76
2022/07/26 14:16:33;;;;;;;3.60;3.30;;;;;;;29.99;42.50;99580.28;2249739;86;25826;-79
2022/07/26 14:20:10;;;;;;;;;;;;;;;29.94;42.83;99583.78;2300310;83;25748;-79
2022/07/26 14:23:38;;;;;;;5.08;3.40;;;;;;;29.87;43.16;99577.48;2337150;83;25716;-79
2022/07/26 14:27:04;;;;;;;3.08;2.87;;;;;;;29.78;43.16;99579.94;2358103;82;25871;-77
2022/07/26 14:30:34;;;;;;;3.20;2.93;;;;;;;29.67;43.46;99569.94;2338705;83;25717;-77
2022/07/26 14:34:01;;;;;;;3.87;3.42;;;;;;;29.51;43.73;99570.08;2358150;83;25551;-76
2022/07/26 14:37:26;;;;;;;3.50;3.20;;;;;;;29.48;43.91;99577.48;2356918;83;25695;-79
2022/07/26 14:40:59;;;;;;;3.40;2.90;;;;;;;29.46;44.17;99574.89;2357029;82;25960;-76
2022/07/26 14:44:25;;;;;;;3.45;2.80;;;;;;;29.52;44.19;99574.48;2357313;83;25994;-75
2022/07/26 14:47:51;;;;;;;3.05;2.75;;;;;;;29.49;44.17;99580.54;2358013;83;25648;-78
2022/07/26 14:51:17;;;;;;;3.47;3.05;;;;;;;29.42;44.37;99587.66;2338099;83;25863;-77
2022/07/26 14:54:42;;;;;;;3.05;2.85;;;;;;;29.39;44.47;99591.89;2354187;83;25612;-77
2022/07/26 14:58:11;;;;;;;3.25;2.95;;;;;;;29.38;44.44;99590.18;2323714;83;25697;-77
2022/07/26 15:01:33;;;;;;;;;;;;;;;29.25;44.60;99600.50;2328702;85;25749;-77
2022/07/26 15:05:07;;;;;;;5.00;2.50;;;;;;;29.16;44.99;99601.50;2243819;86;25698;-76
2022/07/26 15:08:33;;;;;;;3.27;2.58;;;;;;;29.10;45.02;99599.70;2223706;88;26117;-77
2022/07/26 15:12:10;;;;;;;3.17;2.85;;;;;;;29.10;45.20;99601.89;2232768;87;25703;-80
2022/07/26 15:16:02;;;;;;;3.00;2.57;;;;;;;29.17;45.12;99601.88;2234675;87;25973;-76
2022/07/26 15:19:32;;;;;;;2.65;2.45;;;;;;;29.19;45.11;99607.13;2229492;87;25613;-77
2022/07/26 15:23:12;;;;;;;5.35;2.20;;;;;;;29.20;45.05;99610.20;2230498;87;25745;-79
2022/07/26 15:26:43;;;;;;;2.33;2.02;;;;;;;29.23;44.94;99614.04;2233905;87;25568;-80
2022/07/26 15:30:14;;;;;;;2.40;2.08;;;;;;;29.18;44.85;99617.00;2234557;87;25752;-76
2022/07/26 15:33:50;;;;;;;2.67;2.02;;;;;;;29.10;44.69;99613.97;2234643;87;25820;-76
2022/07/26 15:37:23;;;;;;;2.83;1.95;;;;;;;29.06;44.68;99616.48;2213495;87;25707;-76
2022/07/26 15:40:56;;;;;;;2.15;1.80;;;;;;;28.99;44.51;99616.47;2226559;87;25818;-79
2022/07/26 15:44:27;;;;;;;4.72;1.60;;;;;;;28.85;44.46;99617.34;2234338;85;26595;-78
2022/07/26 15:48:03;;;;;;;3.05;1.40;;;;;;;28.84;44.44;99620.13;2234219;87;25843;-79
2022/07/26 15:51:30;;;;;;;4.53;1.67;;;;;;;28.83;44.30;99620.61;2232560;87;25788;-80
2022/07/26 15:54:59;;;;;;;2.17;1.37;;;;;;;28.81;44.18;99625.69;2234186;87;25744;-77
2022/07/26 15:58:28;;;;;;;2.30;1.65;;;;;;;28.71;44.15;99632.97;2149171;90;26132;-78
2022/07/26 16:01:57;;;;;;;2.40;1.40;;;;;;;28.65;44.10;99638.75;2222712;87;25704;-77
2022/07/26 16:05:31;;;;;;;;;;;;;;;;;;;;;
2022/07/26 16:08:48;;;;;;;3.58;1.40;;;;;;;28.54;44.06;99635.86;2268557;85;25912;-78
2022/07/26 16:12:30;;;;;;;2.65;1.10;;;;;;;28.47;44.07;99641.23;2262390;84;25297;-76
2022/07/26 16:15:54;;;;;;;3.25;1.75;;;;;;;28.43;44.10;99645.92;2239926;87;25696;-78
2022/07/26 16:19:21;;;;;;;2.08;1.35;;;;;;;28.35;44.11;99649.53;2239682;87;26014;-79
2022/07/26 16:22:49;;;;;;;2.17;1.20;;;;;;;28.27;44.11;99657.65;2290731;83;25803;-77
2022/07/26 16:26:28;;;;;;;1.95;1.10;;;;;;;28.15;44.25;99670.00;2330262;84;25701;-79
2022/07/26 16:30:03;;;;;;;1.82;1.10;;;;;;;28.09;44.31;99669.88;2330212;84;25716;-79
2022/07/26 16:33:35;;;;;;;0.90;0.90;;;;;;;28.03;44.32;99673.40;2330288;83;25749;-76
2022/07/26 16:37:19;;;;;;;2.45;0.90;;;;;;;27.98;44.34;99682.58;2330464;84;25825;-79
2022/07/26 16:40:43;;;;;;;5.20;1.70;;;;;;;27.92;44.35;99686.10;2328968;84;25898;-76
2022/07/26 16:44:06;;;;;;;1.37;1.17;;;;;;;27.83;44.41;99682.62;2302439;84;25811;-78
2022/07/26 16:47:50;;;;;;;1.85;1.15;;;;;;;27.79;44.49;99683.27;2330934;84;25734;-80
2022/07/26 16:51:21;;;;;;;2.90;1.10;;;;;;;27.74;44.56;99684.86;2332694;83;25729;-76
2022/07/26 16:54:48;;;;;;;1.95;1.70;;;;;;;27.69;44.63;99688.75;2357045;83;25810;-79
2022/07/26 16:58:21;;;;;;;2.15;1.32;;;;;;;27.64;44.72;99683.67;2252783;87;25718;-78
2022/07/26 17:01:48;;;;;;;3.70;1.15;;;;;;;27.62;44.72;99685.56;2138162;91;25664;-78
2022/07/26 17:05:31;;;;;;;2.35;1.10;;;;;;;27.58;44.75;99685.84;2138210;91;25749;-76
2022/07/26 17:09:10;;;;;;;3.50;1.40;;;;;;;27.53;44.79;99693.64;2138779;92;25806;-76
2022/07/26 17:12:42;;;;;;;2.40;1.27;;;;;;;27.50;44.78;99694.30;2022649;96;25700;-78
2022/07/26 17:16:10;;;;;;;2.40;1.07;;;;;;;27.44;44.82;99690.63;2021937;96;25809;-78
2022/07/26 17:19:49;;;;;;;3.37;1.32;;;;;;;27.40;44.96;99691.75;2021360;96;25696;-76
2022/07/26 17:23:44;;;;;;;2.62;1.22;;;;;;;27.39;44.96;99688.70;2020752;96;25889;-76
2022/07/26 17:30:59;;;;;;;2.33;1.30;;;;;;;27.26;45.16;99684.03;2026864;95;26032;-78
2022/07/26 17:34:25;;;;;;;1.70;1.17;;;;;;;27.25;45.14;99682.80;2025065;95;25727;-76
2022/07/26 17:37:46;;;;;;;6.70;2.92;;;;;;;27.21;45.26;99672.73;2024944;95;25745;-76
2022/07/26 17:41:16;;;;;;;7.78;2.95;;;;;;;27.14;45.38;99672.70;2023500;95;25800;-77
2022/07/26 17:44:50;;;;;;;8.93;3.50;;;;;;;27.12;45.50;99679.05;2129361;91;25704;-77
2022/07/26 17:48:20;;;;;;;5.78;3.37;;;;;;;27.07;45.62;99676.64;2137410;90;25796;-77
2022/07/26 17:51:55;;;;;;;9.48;3.92;;;;;;;27.03;45.75;99671.05;2135113;91;25886;-76
2022/07/26 17:55:31;;;;;;;7.22;3.00;;;;;;;27.01;45.83;99663.59;2134015;91;25703;-76
2022/07/26 17:59:04;;;;;;;9.78;3.40;;;;;;;26.98;45.89;99660.61;2187169;88;25773;-79
2022/07/26 18:02:32;;;;;;;4.50;2.47;;;;;;;26.93;46.03;99660.02;2325945;84;25657;-77
2022/07/26 18:06:06;;;;;;;9.03;2.65;;;;;;;26.90;46.17;99659.30;2350688;82;25676;-76
2022/07/26 18:09:30;;;;;;;6.37;2.75;;;;;;;26.85;46.27;99652.40;2349832;83;25691;-77
2022/07/26 18:13:03;;;;;;;7.58;2.85;;;;;;;26.81;46.42;99650.84;2333201;83;25718;-79